createdAt,value
2016-05-06T00:00:46.791Z,1004.92
2016-05-06T00:01:46.761Z,1004.88
2016-05-06T00:02:46.750Z,1004.88
2016-05-06T00:03:46.737Z,1004.87
2016-05-06T00:04:46.723Z,1004.87
2016-05-06T00:05:46.694Z,1004.88
2016-05-06T00:06:46.682Z,1004.87
2016-05-06T00:07:46.652Z,1004.87
2016-05-06T00:08:46.641Z,1004.84
2016-05-06T00:09:46.627Z,1004.84
2016-05-06T00:10:46.614Z,1004.82
2016-05-06T00:11:46.601Z,1004.79
2016-05-06T00:12:46.574Z,1004.81
2016-05-06T00:13:46.560Z,1004.83
2016-05-06T00:14:46.547Z,1004.81
2016-05-06T00:15:46.518Z,1004.8
2016-05-06T00:16:46.505Z,1004.78
2016-05-06T00:17:46.476Z,1004.76
2016-05-06T00:18:46.465Z,1004.75
2016-05-06T00:19:46.451Z,1004.72
2016-05-06T00:20:46.431Z,1004.74
2016-05-06T00:21:46.419Z,1004.75
2016-05-06T00:22:46.405Z,1004.72
2016-05-06T00:23:46.393Z,1004.69
2016-05-06T00:24:46.363Z,1004.71
2016-05-06T00:25:46.335Z,1004.68
2016-05-06T00:26:46.338Z,1004.67
2016-05-06T00:27:46.310Z,1004.65
2016-05-06T00:28:46.296Z,1004.63
2016-05-06T00:29:46.284Z,1004.59
2016-05-06T00:30:46.255Z,1004.63
2016-05-06T00:31:46.242Z,1004.61
2016-05-06T00:32:46.229Z,1004.58
2016-05-06T00:33:46.217Z,1004.57
2016-05-06T00:34:46.187Z,1004.58
2016-05-06T00:35:46.176Z,1004.55
2016-05-06T00:36:46.162Z,1004.53
2016-05-06T00:37:46.133Z,1004.52
2016-05-06T00:38:46.120Z,1004.51
2016-05-06T00:39:46.108Z,1004.5
2016-05-06T00:40:46.078Z,1004.46
2016-05-06T00:41:46.066Z,1004.49
2016-05-06T00:42:46.053Z,1004.49
2016-05-06T00:43:46.040Z,1004.51
2016-05-06T00:44:46.011Z,1004.46
2016-05-06T00:45:45.999Z,1004.46
2016-05-06T00:46:45.985Z,1004.45
2016-05-06T00:47:45.957Z,1004.39
2016-05-06T00:48:45.944Z,1004.46
2016-05-06T00:49:45.931Z,1004.38
2016-05-06T00:50:45.918Z,1004.36
2016-05-06T00:51:45.890Z,1004.35
2016-05-06T00:52:45.893Z,1004.37
2016-05-06T00:53:45.864Z,1004.33
2016-05-06T00:54:45.835Z,1004.32
2016-05-06T00:55:45.822Z,1004.31
2016-05-06T00:56:45.810Z,1004.29
2016-05-06T00:57:45.781Z,1004.29
2016-05-06T00:58:45.768Z,1004.29
2016-05-06T00:59:45.754Z,1004.31
2016-05-06T01:00:45.727Z,1004.27
2016-05-06T01:01:45.713Z,1004.23
2016-05-06T01:02:45.701Z,1004.26
2016-05-06T01:03:45.672Z,1004.22
2016-05-06T01:04:45.659Z,1004.24
2016-05-06T01:05:45.646Z,1004.22
2016-05-06T01:06:45.634Z,1004.21
2016-05-06T01:07:45.604Z,1004.16
2016-05-06T01:08:45.592Z,1004.16
2016-05-06T01:09:45.579Z,1004.15
2016-05-06T01:10:45.566Z,1004.16
2016-05-06T01:11:45.537Z,1004.15
2016-05-06T01:12:45.524Z,1004.13
2016-05-06T01:13:45.512Z,1004.09
2016-05-06T01:14:45.483Z,1004.12
2016-05-06T01:15:45.470Z,1004.07
2016-05-06T01:16:45.457Z,1004.1
2016-05-06T01:17:45.444Z,1004.08
2016-05-06T01:18:45.416Z,1004.02
2016-05-06T01:19:45.403Z,1004.06
2016-05-06T01:20:45.389Z,1004.01
2016-05-06T01:21:45.360Z,1004.01
2016-05-06T01:22:45.349Z,1004.03
2016-05-06T01:23:45.335Z,1004
2016-05-06T01:24:45.307Z,1004.04
2016-05-06T01:25:45.481Z,1004.02
2016-05-06T01:26:45.281Z,1003.97
2016-05-06T01:27:45.268Z,1003.98
2016-05-06T01:28:45.240Z,1003.99
2016-05-06T01:29:45.226Z,1003.96
2016-05-06T01:30:45.213Z,1003.94
2016-05-06T01:31:45.185Z,1003.93
2016-05-06T01:32:45.171Z,1003.89
2016-05-06T01:33:45.159Z,1003.91
2016-05-06T01:34:45.130Z,1003.94
2016-05-06T01:35:45.118Z,1003.88
2016-05-06T01:36:45.104Z,1003.9
2016-05-06T01:37:45.091Z,1003.82
2016-05-06T01:38:45.078Z,1003.84
2016-05-06T01:39:45.051Z,1003.85
2016-05-06T01:40:45.318Z,1003.81
2016-05-06T01:41:45.024Z,1003.83
2016-05-06T01:42:44.996Z,1003.82
2016-05-06T01:43:44.983Z,1003.76
2016-05-06T01:44:44.954Z,1003.81
2016-05-06T01:45:44.941Z,1003.79
2016-05-06T01:46:44.928Z,1003.77
2016-05-06T01:47:44.916Z,1003.79
2016-05-06T01:48:44.887Z,1003.74
2016-05-06T01:49:44.874Z,1003.74
2016-05-06T01:50:44.860Z,1003.68
2016-05-06T01:51:44.833Z,1003.73
2016-05-06T01:52:44.820Z,1003.77
2016-05-06T01:53:44.822Z,1003.74
2016-05-06T01:54:44.793Z,1003.76
2016-05-06T01:55:45.094Z,1003.76
2016-05-06T01:56:44.752Z,1003.83
2016-05-06T01:57:44.739Z,1003.74
2016-05-06T01:58:44.726Z,1003.75
2016-05-06T01:59:44.698Z,1003.75
2016-05-06T02:00:44.685Z,1003.74
2016-05-06T02:01:44.656Z,1003.73
2016-05-06T02:02:44.643Z,1003.72
2016-05-06T02:03:44.629Z,1003.76
2016-05-06T02:04:44.618Z,1003.75
2016-05-06T02:05:44.604Z,1003.76
2016-05-06T02:06:44.576Z,1003.74
2016-05-06T02:07:44.562Z,1003.7
2016-05-06T02:08:44.565Z,1003.71
2016-05-06T02:09:44.521Z,1003.72
2016-05-06T02:10:44.508Z,1003.72
2016-05-06T02:11:44.495Z,1003.67
2016-05-06T02:12:44.467Z,1003.66
2016-05-06T02:13:44.454Z,1003.67
2016-05-06T02:14:44.441Z,1003.67
2016-05-06T02:15:44.412Z,1003.66
2016-05-06T02:16:44.400Z,1003.67
2016-05-06T02:17:44.387Z,1003.62
2016-05-06T02:18:44.374Z,1003.66
2016-05-06T02:19:44.345Z,1003.63
2016-05-06T02:20:44.333Z,1003.61
2016-05-06T02:21:44.303Z,1003.65
2016-05-06T02:22:44.291Z,1003.59
2016-05-06T02:23:44.265Z,1003.57
2016-05-06T02:24:44.253Z,1003.55
2016-05-06T02:25:44.725Z,1003.58
2016-05-06T02:26:44.228Z,1003.59
2016-05-06T02:27:44.198Z,1003.53
2016-05-06T02:28:44.186Z,1003.54
2016-05-06T02:29:44.172Z,1003.55
2016-05-06T02:30:44.160Z,1003.54
2016-05-06T02:31:44.131Z,1003.52
2016-05-06T02:32:44.133Z,1003.5
2016-05-06T02:33:44.089Z,1003.54
2016-05-06T02:34:44.077Z,1003.48
2016-05-06T02:35:44.080Z,1003.5
2016-05-06T02:36:44.050Z,1003.48
2016-05-06T02:37:44.023Z,1003.52
2016-05-06T02:38:44.010Z,1003.52
2016-05-06T02:39:43.997Z,1003.48
2016-05-06T02:40:43.983Z,1003.5
2016-05-06T02:41:43.954Z,1003.55
2016-05-06T02:42:43.941Z,1003.54
2016-05-06T02:43:43.914Z,1003.52
2016-05-06T02:44:43.901Z,1003.47
2016-05-06T02:45:43.887Z,1003.47
2016-05-06T02:46:43.875Z,1003.47
2016-05-06T02:47:43.862Z,1003.47
2016-05-06T02:48:43.832Z,1003.44
2016-05-06T02:49:43.820Z,1003.43
2016-05-06T02:50:43.793Z,1003.49
2016-05-06T02:51:43.779Z,1003.51
2016-05-06T02:52:43.765Z,1003.54
2016-05-06T02:53:43.754Z,1003.48
2016-05-06T02:54:43.723Z,1003.51
2016-05-06T02:55:43.712Z,1003.5
2016-05-06T02:56:43.683Z,1003.54
2016-05-06T02:57:43.670Z,1003.53
2016-05-06T02:58:43.657Z,1003.52
2016-05-06T02:59:43.629Z,1003.5
2016-05-06T03:00:43.615Z,1003.5
2016-05-06T03:01:43.602Z,1003.61
2016-05-06T03:02:43.590Z,1003.47
2016-05-06T03:03:43.577Z,1003.5
2016-05-06T03:04:43.548Z,1003.53
2016-05-06T03:05:43.535Z,1003.53
2016-05-06T03:06:43.522Z,1003.47
2016-05-06T03:07:43.494Z,1003.48
2016-05-06T03:08:43.480Z,1003.44
2016-05-06T03:09:43.452Z,1003.42
2016-05-06T03:10:44.049Z,1003.44
2016-05-06T03:11:43.427Z,1003.38
2016-05-06T03:12:43.413Z,1003.37
2016-05-06T03:13:43.385Z,1003.43
2016-05-06T03:14:43.371Z,1003.4
2016-05-06T03:15:43.360Z,1003.45
2016-05-06T03:16:43.330Z,1003.47
2016-05-06T03:17:43.318Z,1003.44
2016-05-06T03:18:43.304Z,1003.46
2016-05-06T03:19:43.276Z,1003.52
2016-05-06T03:20:43.263Z,1003.43
2016-05-06T03:21:43.250Z,1003.42
2016-05-06T03:22:43.237Z,1003.46
2016-05-06T03:23:43.224Z,1003.46
2016-05-06T03:24:43.196Z,1003.44
2016-05-06T03:25:43.182Z,1003.45
2016-05-06T03:26:43.185Z,1003.5
2016-05-06T03:27:43.142Z,1003.46
2016-05-06T03:28:43.128Z,1003.51
2016-05-06T03:29:43.115Z,1003.56
2016-05-06T03:30:43.087Z,1003.48
2016-05-06T03:31:43.073Z,1003.54
2016-05-06T03:32:43.061Z,1003.47
2016-05-06T03:33:43.048Z,1003.47
2016-05-06T03:34:43.019Z,1003.51
2016-05-06T03:35:43.006Z,1003.52
2016-05-06T03:36:42.978Z,1003.46
2016-05-06T03:37:42.965Z,1003.44
2016-05-06T03:38:42.952Z,1003.4
2016-05-06T03:39:42.924Z,1003.41
2016-05-06T03:40:42.911Z,1003.4
2016-05-06T03:41:42.910Z,1003.41
2016-05-06T03:42:42.877Z,1003.39
2016-05-06T03:43:42.853Z,1003.36
2016-05-06T03:44:42.838Z,1003.33
2016-05-06T03:45:42.810Z,1003.32
2016-05-06T03:46:42.797Z,1003.34
2016-05-06T03:47:42.784Z,1003.32
2016-05-06T03:48:42.755Z,1003.37
2016-05-06T03:49:42.743Z,1003.33
2016-05-06T03:50:42.729Z,1003.39
2016-05-06T03:51:42.701Z,1003.38
2016-05-06T03:52:42.688Z,1003.33
2016-05-06T03:53:42.674Z,1003.34
2016-05-06T03:54:42.663Z,1003.35
2016-05-06T03:55:42.946Z,1003.38
2016-05-06T03:56:42.621Z,1003.34
2016-05-06T03:57:42.607Z,1003.3
2016-05-06T03:58:42.579Z,1003.31
2016-05-06T03:59:42.566Z,1003.32
2016-05-06T04:00:42.554Z,1003.22
2016-05-06T04:01:42.525Z,1003.25
2016-05-06T04:02:42.511Z,1003.25
2016-05-06T04:03:42.499Z,1003.24
2016-05-06T04:04:42.486Z,1003.23
2016-05-06T04:05:42.456Z,1003.19
2016-05-06T04:06:42.445Z,1003.23
2016-05-06T04:07:42.432Z,1003.2
2016-05-06T04:08:42.403Z,1003.21
2016-05-06T04:09:42.389Z,1003.21
2016-05-06T04:10:42.409Z,1003.16
2016-05-06T04:11:42.347Z,1003.17
2016-05-06T04:12:42.336Z,1003.13
2016-05-06T04:13:42.322Z,1003.16
2016-05-06T04:14:42.294Z,1003.1
2016-05-06T04:15:42.281Z,1003.19
2016-05-06T04:16:42.268Z,1003.14
2016-05-06T04:17:42.239Z,1003.16
2016-05-06T04:18:42.226Z,1003.23
2016-05-06T04:19:42.214Z,1003.22
2016-05-06T04:20:42.185Z,1003.21
2016-05-06T04:21:42.172Z,1003.23
2016-05-06T04:22:42.159Z,1003.22
2016-05-06T04:23:42.146Z,1003.26
2016-05-06T04:24:42.118Z,1003.2
2016-05-06T04:25:42.135Z,1003.34
2016-05-06T04:26:42.092Z,1003.3
2016-05-06T04:27:42.063Z,1003.23
2016-05-06T04:28:42.051Z,1003.29
2016-05-06T04:29:42.037Z,1003.3
2016-05-06T04:30:42.009Z,1003.23
2016-05-06T04:31:41.996Z,1003.27
2016-05-06T04:32:41.984Z,1003.24
2016-05-06T04:33:41.954Z,1003.31
2016-05-06T04:34:41.942Z,1003.28
2016-05-06T04:35:41.929Z,1003.26
2016-05-06T04:36:41.915Z,1003.24
2016-05-06T04:37:41.887Z,1003.26
2016-05-06T04:38:41.874Z,1003.26
2016-05-06T04:39:41.861Z,1003.21
2016-05-06T04:40:41.833Z,1003.25
2016-05-06T04:41:41.820Z,1003.22
2016-05-06T04:42:41.806Z,1003.15
2016-05-06T04:43:41.778Z,1003.18
2016-05-06T04:44:41.766Z,1003.21
2016-05-06T04:45:41.752Z,1003.22
2016-05-06T04:46:41.724Z,1003.16
2016-05-06T04:47:41.711Z,1003.21
2016-05-06T04:48:41.698Z,1003.22
2016-05-06T04:49:41.685Z,1003.23
2016-05-06T04:50:41.657Z,1003.28
2016-05-06T04:51:41.643Z,1003.19
2016-05-06T04:52:41.630Z,1003.2
2016-05-06T04:53:41.602Z,1003.23
2016-05-06T04:54:41.589Z,1003.28
2016-05-06T04:55:41.576Z,1003.3
2016-05-06T04:56:41.548Z,1003.27
2016-05-06T04:57:41.535Z,1003.27
2016-05-06T04:58:41.521Z,1003.26
2016-05-06T04:59:41.509Z,1003.21
2016-05-06T05:00:41.479Z,1003.18
2016-05-06T05:01:41.468Z,1003.21
2016-05-06T05:02:41.454Z,1003.18
2016-05-06T05:03:41.425Z,1003.17
2016-05-06T05:04:41.413Z,1003.16
2016-05-06T05:05:41.400Z,1003.16
2016-05-06T05:06:41.387Z,1003.14
2016-05-06T05:07:41.358Z,1003.14
2016-05-06T05:08:41.346Z,1003.16
2016-05-06T05:09:41.333Z,1003.15
2016-05-06T05:10:41.327Z,1003.15
2016-05-06T05:11:41.361Z,1003.17
2016-05-06T05:12:41.395Z,1003.14
2016-05-06T05:13:41.414Z,1003.16
2016-05-06T05:14:41.448Z,1003.17
2016-05-06T05:15:41.468Z,1003.14
2016-05-06T05:16:41.472Z,1003.17
2016-05-06T05:17:41.461Z,1003.13
2016-05-06T05:18:41.464Z,1003.16
2016-05-06T05:19:41.452Z,1003.15
2016-05-06T05:20:41.451Z,1003.14
2016-05-06T05:21:41.445Z,1003.16
2016-05-06T05:22:41.454Z,1003.2
2016-05-06T05:23:41.415Z,1003.23
2016-05-06T05:24:41.409Z,1003.2
2016-05-06T05:25:41.399Z,1003.24
2016-05-06T05:26:41.374Z,1003.26
2016-05-06T05:27:41.363Z,1003.24
2016-05-06T05:28:41.353Z,1003.16
2016-05-06T05:29:41.326Z,1003.2
2016-05-06T05:30:41.330Z,1003.21
2016-05-06T05:31:41.302Z,1003.22
2016-05-06T05:32:41.290Z,1003.22
2016-05-06T05:33:41.278Z,1003.23
2016-05-06T05:34:41.250Z,1003.22
2016-05-06T05:35:41.238Z,1003.22
2016-05-06T05:36:41.209Z,1003.26
2016-05-06T05:37:41.213Z,1003.26
2016-05-06T05:38:41.185Z,1003.23
2016-05-06T05:39:41.172Z,1003.27
2016-05-06T05:40:41.191Z,1003.29
2016-05-06T05:41:41.131Z,1003.32
2016-05-06T05:42:41.118Z,1003.32
2016-05-06T05:43:41.105Z,1003.32
2016-05-06T05:44:41.077Z,1003.35
2016-05-06T05:45:41.063Z,1003.34
2016-05-06T05:46:41.051Z,1003.32
2016-05-06T05:47:41.022Z,1003.34
2016-05-06T05:48:41.010Z,1003.42
2016-05-06T05:49:40.996Z,1003.38
2016-05-06T05:50:40.983Z,1003.4
2016-05-06T05:51:40.954Z,1003.37
2016-05-06T05:52:40.942Z,1003.41
2016-05-06T05:53:40.929Z,1003.4
2016-05-06T05:54:40.901Z,1003.37
2016-05-06T05:55:41.121Z,1003.42
2016-05-06T05:56:40.874Z,1003.42
2016-05-06T05:57:40.862Z,1003.4
2016-05-06T05:58:40.864Z,1003.42
2016-05-06T05:59:40.820Z,1003.43
2016-05-06T06:00:40.807Z,1003.47
2016-05-06T06:01:41.184Z,1003.46
2016-05-06T06:02:40.781Z,1003.46
2016-05-06T06:03:40.753Z,1003.52
2016-05-06T06:04:40.724Z,1003.51
2016-05-06T06:05:40.727Z,1003.52
2016-05-06T06:06:40.698Z,1003.53
2016-05-06T06:07:40.686Z,1003.57
2016-05-06T06:08:40.656Z,1003.59
2016-05-06T06:09:40.644Z,1003.58
2016-05-06T06:10:40.630Z,1003.6
2016-05-06T06:11:40.618Z,1003.61
2016-05-06T06:12:40.589Z,1003.63
2016-05-06T06:13:40.577Z,1003.61
2016-05-06T06:14:40.548Z,1003.67
2016-05-06T06:15:40.535Z,1003.69
2016-05-06T06:16:40.537Z,1003.72
2016-05-06T06:17:40.510Z,1003.74
2016-05-06T06:18:40.480Z,1003.74
2016-05-06T06:19:40.468Z,1003.74
2016-05-06T06:20:40.455Z,1003.75
2016-05-06T06:21:40.441Z,1003.73
2016-05-06T06:22:40.444Z,1003.73
2016-05-06T06:23:40.400Z,1003.72
2016-05-06T06:24:40.388Z,1003.75
2016-05-06T06:25:40.374Z,1003.77
2016-05-06T06:26:40.346Z,1003.77
2016-05-06T06:27:40.332Z,1003.75
2016-05-06T06:28:40.320Z,1003.8
2016-05-06T06:29:40.291Z,1003.79
2016-05-06T06:30:40.279Z,1003.78
2016-05-06T06:31:40.265Z,1003.82
2016-05-06T06:32:40.252Z,1003.77
2016-05-06T06:33:40.240Z,1003.78
2016-05-06T06:34:40.226Z,1003.8
2016-05-06T06:35:40.197Z,1003.8
2016-05-06T06:36:40.170Z,1003.84
2016-05-06T06:37:40.156Z,1003.87
2016-05-06T06:38:40.144Z,1003.85
2016-05-06T06:39:40.131Z,1003.93
2016-05-06T06:40:40.180Z,1003.92
2016-05-06T06:41:40.089Z,1003.91
2016-05-06T06:42:40.076Z,1003.88
2016-05-06T06:43:40.063Z,1003.91
2016-05-06T06:44:40.050Z,1003.9
2016-05-06T06:45:40.022Z,1003.87
2016-05-06T06:46:40.009Z,1003.91
2016-05-06T06:47:39.980Z,1003.85
2016-05-06T06:48:39.968Z,1003.85
2016-05-06T06:49:39.954Z,1003.85
2016-05-06T06:50:39.941Z,1003.89
2016-05-06T06:51:39.929Z,1003.84
2016-05-06T06:52:39.916Z,1003.86
2016-05-06T06:53:39.887Z,1003.86
2016-05-06T06:54:39.874Z,1003.88
2016-05-06T06:55:40.470Z,1003.87
2016-05-06T06:56:40.051Z,1003.88
2016-05-06T06:57:39.820Z,1003.85
2016-05-06T06:58:39.806Z,1003.83
2016-05-06T06:59:39.779Z,1003.87
2016-05-06T07:00:39.765Z,1003.88
2016-05-06T07:01:39.753Z,1003.87
2016-05-06T07:02:39.724Z,1003.88
2016-05-06T07:03:39.711Z,1003.91
2016-05-06T07:04:39.697Z,1003.89
2016-05-06T07:05:39.684Z,1003.89
2016-05-06T07:06:39.656Z,1003.93
2016-05-06T07:07:39.644Z,1003.91
2016-05-06T07:08:39.630Z,1003.94
2016-05-06T07:09:39.603Z,1003.94
2016-05-06T07:10:39.589Z,1003.97
2016-05-06T07:11:39.575Z,1003.98
2016-05-06T07:12:39.547Z,1004.02
2016-05-06T07:13:39.535Z,1004
2016-05-06T07:14:39.521Z,1003.99
2016-05-06T07:15:39.508Z,1003.92
2016-05-06T07:16:39.496Z,1003.96
2016-05-06T07:17:39.483Z,1003.99
2016-05-06T07:18:39.455Z,1003.98
2016-05-06T07:19:39.426Z,1003.99
2016-05-06T07:20:39.413Z,1003.94
2016-05-06T07:21:39.399Z,1003.93
2016-05-06T07:22:39.387Z,1003.93
2016-05-06T07:23:39.441Z,1003.93
2016-05-06T07:24:39.350Z,1003.92
2016-05-06T07:25:39.337Z,1003.92
2016-05-06T07:26:39.324Z,1003.9
2016-05-06T07:27:39.296Z,1003.9
2016-05-06T07:28:39.283Z,1003.94
2016-05-06T07:29:39.270Z,1003.96
2016-05-06T07:30:39.257Z,1003.94
2016-05-06T07:31:39.229Z,1003.9
2016-05-06T07:32:39.216Z,1003.86
2016-05-06T07:33:39.203Z,1003.91
2016-05-06T07:34:39.189Z,1003.9
2016-05-06T07:35:39.161Z,1003.9
2016-05-06T07:36:39.148Z,1003.94
2016-05-06T07:37:39.119Z,1003.97
2016-05-06T07:38:39.106Z,1003.95
2016-05-06T07:39:39.094Z,1003.96
2016-05-06T07:40:39.081Z,1003.96
2016-05-06T07:41:39.052Z,1004.03
2016-05-06T07:42:39.039Z,1004
2016-05-06T07:43:39.027Z,1004.01
2016-05-06T07:44:39.013Z,1003.99
2016-05-06T07:45:39.000Z,1004.01
2016-05-06T07:46:38.972Z,1004.01
2016-05-06T07:47:38.959Z,1004.06
2016-05-06T07:48:38.947Z,1004.1
2016-05-06T07:49:38.918Z,1004.1
2016-05-06T07:50:38.904Z,1004.12
2016-05-06T07:51:38.891Z,1004.11
2016-05-06T07:52:38.879Z,1004.13
2016-05-06T07:53:38.850Z,1004.2
2016-05-06T07:54:38.837Z,1004.15
2016-05-06T07:55:38.824Z,1004.17
2016-05-06T07:56:38.796Z,1004.18
2016-05-06T07:57:38.798Z,1004.19
2016-05-06T07:58:38.771Z,1004.23
2016-05-06T07:59:38.757Z,1004.21
2016-05-06T08:00:38.744Z,1004.22
2016-05-06T08:01:38.731Z,1004.27
2016-05-06T08:02:38.703Z,1004.27
2016-05-06T08:03:38.689Z,1004.3
2016-05-06T08:04:38.676Z,1004.27
2016-05-06T08:05:38.648Z,1004.33
2016-05-06T08:06:38.651Z,1004.3
2016-05-06T08:07:38.622Z,1004.32
2016-05-06T08:08:38.609Z,1004.32
2016-05-06T08:09:38.581Z,1004.29
2016-05-06T08:10:38.567Z,1004.32
2016-05-06T08:11:38.555Z,1004.3
2016-05-06T08:12:38.526Z,1004.35
2016-05-06T08:13:38.514Z,1004.34
2016-05-06T08:14:38.500Z,1004.35
2016-05-06T08:15:38.488Z,1004.33
2016-05-06T08:16:38.630Z,1004.32
2016-05-06T08:17:38.461Z,1004.37
2016-05-06T08:18:38.433Z,1004.38
2016-05-06T08:19:38.420Z,1004.39
2016-05-06T08:20:38.407Z,1004.41
2016-05-06T08:21:38.379Z,1004.43
2016-05-06T08:22:38.366Z,1004.4
2016-05-06T08:23:38.352Z,1004.4
2016-05-06T08:24:38.324Z,1004.42
2016-05-06T08:25:38.312Z,1004.41
2016-05-06T08:26:38.298Z,1004.46
2016-05-06T08:27:38.285Z,1004.47
2016-05-06T08:28:38.273Z,1004.45
2016-05-06T08:29:38.259Z,1004.47
2016-05-06T08:30:38.231Z,1004.51
2016-05-06T08:31:38.218Z,1004.44
2016-05-06T08:32:38.206Z,1004.49
2016-05-06T08:33:38.192Z,1004.48
2016-05-06T08:34:38.164Z,1004.5
2016-05-06T08:35:38.151Z,1004.54
2016-05-06T08:36:38.137Z,1004.57
2016-05-06T08:37:38.125Z,1004.51
2016-05-06T08:38:38.096Z,1004.52
2016-05-06T08:39:38.100Z,1004.5
2016-05-06T08:40:38.070Z,1004.43
2016-05-06T08:41:38.058Z,1004.51
2016-05-06T08:42:38.044Z,1004.53
2016-05-06T08:43:38.031Z,1004.55
2016-05-06T08:44:38.003Z,1004.55
2016-05-06T08:45:37.990Z,1004.51
2016-05-06T08:46:37.977Z,1004.49
2016-05-06T08:47:37.964Z,1004.51
2016-05-06T08:48:37.935Z,1004.54
2016-05-06T08:49:37.922Z,1004.53
2016-05-06T08:50:37.910Z,1004.55
2016-05-06T08:51:37.896Z,1004.55
2016-05-06T08:52:37.869Z,1004.5
2016-05-06T08:53:37.855Z,1004.52
2016-05-06T08:54:37.843Z,1004.57
2016-05-06T08:55:37.829Z,1004.48
2016-05-06T08:56:37.816Z,1004.54
2016-05-06T08:57:38.023Z,1004.53
2016-05-06T08:58:37.791Z,1004.52
2016-05-06T08:59:37.762Z,1004.6
2016-05-06T09:00:37.749Z,1004.52
2016-05-06T09:01:37.736Z,1004.52
2016-05-06T09:02:37.724Z,1004.58
2016-05-06T09:03:37.695Z,1004.52
2016-05-06T09:04:37.713Z,1004.57
2016-05-06T09:05:37.669Z,1004.58
2016-05-06T09:06:37.656Z,1004.48
2016-05-06T09:07:37.642Z,1004.6
2016-05-06T09:08:37.630Z,1004.52
2016-05-06T09:09:37.617Z,1004.56
2016-05-06T09:10:37.589Z,1004.57
2016-05-06T09:11:37.592Z,1004.62
2016-05-06T09:12:37.547Z,1004.57
2016-05-06T09:13:37.534Z,1004.56
2016-05-06T09:14:37.536Z,1004.6
2016-05-06T09:15:37.508Z,1004.7
2016-05-06T09:16:37.495Z,1004.6
2016-05-06T09:17:37.483Z,1004.61
2016-05-06T09:18:37.469Z,1004.64
2016-05-06T09:19:37.457Z,1004.62
2016-05-06T09:20:37.427Z,1004.56
2016-05-06T09:21:37.431Z,1004.63
2016-05-06T09:22:37.418Z,1004.62
2016-05-06T09:23:37.388Z,1004.64
2016-05-06T09:24:37.377Z,1004.59
2016-05-06T09:25:37.364Z,1004.67
2016-05-06T09:26:37.444Z,1004.7
2016-05-06T09:27:37.338Z,1004.74
2016-05-06T09:28:37.309Z,1004.66
2016-05-06T09:29:37.309Z,1004.7
2016-05-06T09:30:37.280Z,1004.73
2016-05-06T09:31:37.267Z,1004.72
2016-05-06T09:32:37.254Z,1004.66
2016-05-06T09:33:37.242Z,1004.74
2016-05-06T09:34:37.229Z,1004.73
2016-05-06T09:35:37.232Z,1004.69
2016-05-06T09:36:37.234Z,1004.62
2016-05-06T09:37:37.174Z,1004.7
2016-05-06T09:38:37.162Z,1004.69
2016-05-06T09:39:37.148Z,1004.72
2016-05-06T09:40:37.136Z,1004.73
2016-05-06T09:41:37.123Z,1004.63
2016-05-06T09:42:37.094Z,1004.7
2016-05-06T09:43:37.081Z,1004.69
2016-05-06T09:44:37.068Z,1004.69
2016-05-06T09:45:37.056Z,1004.73
2016-05-06T09:46:37.042Z,1004.72
2016-05-06T09:47:37.030Z,1004.7
2016-05-06T09:48:37.001Z,1004.7
2016-05-06T09:49:36.988Z,1004.7
2016-05-06T09:50:36.974Z,1004.79
2016-05-06T09:51:37.275Z,1004.75
2016-05-06T09:52:37.308Z,1004.75
2016-05-06T09:53:37.171Z,1004.74
2016-05-06T09:54:37.267Z,1004.83
2016-05-06T09:55:36.894Z,1004.77
2016-05-06T09:56:37.210Z,1004.79
2016-05-06T09:57:37.400Z,1004.79
2016-05-06T09:58:36.855Z,1004.79
2016-05-06T09:59:36.843Z,1004.82
2016-05-06T10:00:36.829Z,1004.8
2016-05-06T10:01:37.146Z,1004.82
2016-05-06T10:02:36.788Z,1004.83
2016-05-06T10:03:37.118Z,1004.92
2016-05-06T10:04:36.763Z,1004.89
2016-05-06T10:05:36.749Z,1004.92
2016-05-06T10:06:36.736Z,1004.91
2016-05-06T10:07:36.740Z,1005.02
2016-05-06T10:08:36.711Z,1004.97
2016-05-06T10:09:36.682Z,1004.96
2016-05-06T10:10:36.670Z,1005.01
2016-05-06T10:11:36.656Z,1004.9
2016-05-06T10:12:36.643Z,1004.9
2016-05-06T10:13:36.631Z,1004.9
2016-05-06T10:14:36.603Z,1004.9
2016-05-06T10:15:36.589Z,1004.96
2016-05-06T10:16:36.592Z,1004.89
2016-05-06T10:17:36.563Z,1004.89
2016-05-06T10:18:36.863Z,1004.88
2016-05-06T10:19:36.537Z,1004.9
2016-05-06T10:20:36.524Z,1004.87
2016-05-06T10:21:36.512Z,1004.94
2016-05-06T10:22:36.499Z,1004.93
2016-05-06T10:23:36.470Z,1004.95
2016-05-06T10:24:36.472Z,1004.95
2016-05-06T10:25:36.443Z,1004.95
2016-05-06T10:26:36.431Z,1005
2016-05-06T10:27:36.418Z,1005.03
2016-05-06T10:28:36.421Z,1004.93
2016-05-06T10:29:36.393Z,1004.95
2016-05-06T10:30:36.426Z,1004.99
2016-05-06T10:31:36.366Z,1005.05
2016-05-06T10:32:36.369Z,1005.03
2016-05-06T10:33:36.325Z,1005.07
2016-05-06T10:34:36.312Z,1005.05
2016-05-06T10:35:36.299Z,1005.11
2016-05-06T10:36:36.286Z,1005.13
2016-05-06T10:37:36.273Z,1005.13
2016-05-06T10:38:36.245Z,1005.14
2016-05-06T10:39:36.231Z,1005.19
2016-05-06T10:40:36.218Z,1005.12
2016-05-06T10:41:36.221Z,1005.17
2016-05-06T10:42:36.193Z,1005.19
2016-05-06T10:43:36.180Z,1005.09
2016-05-06T10:44:36.151Z,1005.08
2016-05-06T10:45:36.139Z,1005.07
2016-05-06T10:46:36.125Z,1005.07
2016-05-06T10:47:36.112Z,1005.12
2016-05-06T10:48:36.397Z,1005.08
2016-05-06T10:49:36.086Z,1005.06
2016-05-06T10:50:36.075Z,1004.99
2016-05-06T10:51:36.077Z,1005.11
2016-05-06T10:52:36.032Z,1005.02
2016-05-06T10:53:36.035Z,1005.09
2016-05-06T10:54:36.006Z,1005.05
2016-05-06T10:55:35.994Z,1005.03
2016-05-06T10:56:35.997Z,1005.03
2016-05-06T10:57:35.983Z,1005.03
2016-05-06T10:58:35.955Z,1005.04
2016-05-06T10:59:35.941Z,1005.03
2016-05-06T11:00:35.930Z,1005.06
2016-05-06T11:01:35.899Z,1005.07
2016-05-06T11:02:35.935Z,1005.09
2016-05-06T11:03:35.890Z,1005.08
2016-05-06T11:04:35.908Z,1005.03
2016-05-06T11:05:35.848Z,1005.11
2016-05-06T11:06:35.835Z,1005.03
2016-05-06T11:07:35.823Z,1005.05
2016-05-06T11:08:35.810Z,1005.04
2016-05-06T11:09:35.875Z,1005.03
2016-05-06T11:10:35.784Z,1005.01
2016-05-06T11:11:35.756Z,1005.07
2016-05-06T11:12:35.759Z,1005.06
2016-05-06T11:13:35.729Z,1005.05
2016-05-06T11:14:35.717Z,1005.08
2016-05-06T11:15:35.704Z,1005.09
2016-05-06T11:16:35.675Z,1005.05
2016-05-06T11:17:35.678Z,1005.08
2016-05-06T11:18:35.650Z,1005.1
2016-05-06T11:19:35.667Z,1005.17
2016-05-06T11:20:36.061Z,1005.11
2016-05-06T11:21:35.658Z,1005.11
2016-05-06T11:22:35.614Z,1005.03
2016-05-06T11:23:35.584Z,1004.99
2016-05-06T11:24:35.555Z,1005.01
2016-05-06T11:25:35.559Z,1005.09
2016-05-06T11:26:35.530Z,1005.04
2016-05-06T11:27:35.533Z,1005.07
2016-05-06T11:28:35.505Z,1005.08
2016-05-06T11:29:35.491Z,1004.98
2016-05-06T11:30:35.463Z,1005.12
2016-05-06T11:31:35.450Z,1005.08
2016-05-06T11:32:35.765Z,1005.07
2016-05-06T11:33:35.424Z,1005.04
2016-05-06T11:34:35.427Z,1005.04
2016-05-06T11:35:35.398Z,1005.09
2016-05-06T11:36:35.386Z,1005.1
2016-05-06T11:37:35.357Z,1005.06
2016-05-06T11:38:35.359Z,1005.14
2016-05-06T11:39:35.332Z,1005.1
2016-05-06T11:40:35.318Z,1005.15
2016-05-06T11:41:35.305Z,1005.14
2016-05-06T11:42:35.292Z,1005.17
2016-05-06T11:43:36.357Z,1005.17
2016-05-06T11:44:35.266Z,1005.21
2016-05-06T11:45:35.237Z,1005.14
2016-05-06T11:46:35.225Z,1005.18
2016-05-06T11:47:35.212Z,1005.13
2016-05-06T11:48:35.198Z,1005.2
2016-05-06T11:49:35.170Z,1005.18
2016-05-06T11:50:35.157Z,1005.17
2016-05-06T11:51:35.145Z,1005.18
2016-05-06T11:52:35.147Z,1005.17
2016-05-06T11:53:35.119Z,1005.18
2016-05-06T11:54:35.090Z,1005.25
2016-05-06T11:55:35.077Z,1005.15
2016-05-06T11:56:35.064Z,1005.16
2016-05-06T11:57:35.050Z,1005.15
2016-05-06T11:58:35.039Z,1005.14
2016-05-06T11:59:35.025Z,1005.12
2016-05-06T12:00:35.012Z,1005.18
2016-05-06T12:01:34.984Z,1005.18
2016-05-06T12:02:34.971Z,1005.16
2016-05-06T12:03:34.958Z,1005.17
2016-05-06T12:04:34.944Z,1005.18
2016-05-06T12:05:34.933Z,1005.18
2016-05-06T12:06:34.904Z,1005.15
2016-05-06T12:07:34.906Z,1005.18
2016-05-06T12:08:34.878Z,1005.18